メインページ
METAR-TAF:

METAR-TAF

空港 :

ハト国際空港

キュラソー島, オランダ領アンティル

緯度: 12-12N, 経度: 068-58W, 海抜: 9m

現時点の気象観測

当レポートは1時間25分前の12:00(UTC)に作成
南東の風 9kt
気温 27°C
湿度 89%
気圧 1011 hPa
視程10km以上
高度1600ftの雲はほとんどない
高度3500ftの雲は散在している
弱いにわか雨

METAR: TNCC 261200Z 13009KT 9999 -SHRA FEW016 SCT035 27/25 Q1011 NOSIG

時間: 09:25 (13:25 UTC)

予報

当レポートは3時間25分前の10:00(UTC)に作成
予報は26日の 12時(UTC)から 27日の 12時(UTC)まで有効
の風 14kt
視程10km以上
高度1800ftの雲は散在している
26日の 12時(UTC)から 26日の 18時(UTC)まで一時的に
視程: 7000m
高度1500ftの千切れ雲あり
にわか雨

TAF: TNCC 261000Z 2612/2712 09014KT 9999 SCT018 TEMPO 2612/2618 7000 SHRA BKN015

4,000以上の空港の気象観測と天気予報(METAR報とTAF報)

利用可能な観測所は地図上に黄色い丸と赤い丸で示す。

丸の上にカーソルを重ねると観測所名を参照できる。

次にクリックすると気象観測と天気予報を参照できる。

マップの切り替え:黒色「×」印の緑ボタンをクリックして拡大、「-」印の緑ボタンをクリックして縮小、緑色の三角印をクリックして隣りの地図に切り替え


METAR-TAF: